sensor_id;sensor_type;location;lat;lon;timestamp;temperature;humidity
38550;DHT22;24322;52.004;5.948;2022-08-19T00:01:33;18.10;99.90
38550;DHT22;24322;52.004;5.948;2022-08-19T00:04:02;18.10;99.90
38550;DHT22;24322;52.004;5.948;2022-08-19T00:06:29;18.10;99.90
38550;DHT22;24322;52.004;5.948;2022-08-19T00:08:56;18.10;99.90
38550;DHT22;24322;52.004;5.948;2022-08-19T00:11:22;18.10;99.90
38550;DHT22;24322;52.004;5.948;2022-08-19T00:13:48;18.00;99.90
38550;DHT22;24322;52.004;5.948;2022-08-19T00:16:16;18.00;99.90
38550;DHT22;24322;52.004;5.948;2022-08-19T00:18:43;18.00;99.90
38550;DHT22;24322;52.004;5.948;2022-08-19T00:21:09;18.00;99.90
38550;DHT22;24322;52.004;5.948;2022-08-19T00:23:35;18.00;99.90
38550;DHT22;24322;52.004;5.948;2022-08-19T00:26:05;18.00;99.90
38550;DHT22;24322;52.004;5.948;2022-08-19T00:28:31;17.90;99.90
38550;DHT22;24322;52.004;5.948;2022-08-19T00:30:58;17.90;99.90
38550;DHT22;24322;52.004;5.948;2022-08-19T00:33:24;17.90;99.90
38550;DHT22;24322;52.004;5.948;2022-08-19T00:35:50;17.90;99.90
38550;DHT22;24322;52.004;5.948;2022-08-19T00:38:15;17.90;99.90
38550;DHT22;24322;52.004;5.948;2022-08-19T00:40:44;17.80;99.90
38550;DHT22;24322;52.004;5.948;2022-08-19T00:43:13;17.80;99.90
38550;DHT22;24322;52.004;5.948;2022-08-19T00:45:43;17.80;99.90
38550;DHT22;24322;52.004;5.948;2022-08-19T00:48:10;17.80;99.90
38550;DHT22;24322;52.004;5.948;2022-08-19T00:50:36;17.70;99.90
38550;DHT22;24322;52.004;5.948;2022-08-19T00:53:03;17.70;99.90
38550;DHT22;24322;52.004;5.948;2022-08-19T00:55:31;17.70;99.90
38550;DHT22;24322;52.004;5.948;2022-08-19T00:58:05;17.70;99.90
38550;DHT22;24322;52.004;5.948;2022-08-19T01:00:32;17.60;99.90
38550;DHT22;24322;52.004;5.948;2022-08-19T01:03:00;17.60;99.90
38550;DHT22;24322;52.004;5.948;2022-08-19T01:05:27;17.60;99.90
38550;DHT22;24322;52.004;5.948;2022-08-19T01:07:56;17.60;99.90
38550;DHT22;24322;52.004;5.948;2022-08-19T01:10:25;17.50;99.90
38550;DHT22;24322;52.004;5.948;2022-08-19T01:12:52;17.50;99.90
38550;DHT22;24322;52.004;5.948;2022-08-19T01:15:23;17.40;99.90
38550;DHT22;24322;52.004;5.948;2022-08-19T01:17:50;17.40;99.90
38550;DHT22;24322;52.004;5.948;2022-08-19T01:20:19;17.40;99.90
38550;DHT22;24322;52.004;5.948;2022-08-19T01:22:54;17.40;99.90
38550;DHT22;24322;52.004;5.948;2022-08-19T01:25:22;17.30;99.90
38550;DHT22;24322;52.004;5.948;2022-08-19T01:27:50;17.30;99.90
38550;DHT22;24322;52.004;5.948;2022-08-19T01:30:25;17.30;99.90
38550;DHT22;24322;52.004;5.948;2022-08-19T01:32:52;17.30;99.90
38550;DHT22;24322;52.004;5.948;2022-08-19T01:35:19;17.30;99.90
38550;DHT22;24322;52.004;5.948;2022-08-19T01:37:56;17.30;99.90
38550;DHT22;24322;52.004;5.948;2022-08-19T01:40:24;17.30;99.90
38550;DHT22;24322;52.004;5.948;2022-08-19T01:42:52;17.30;99.90
38550;DHT22;24322;52.004;5.948;2022-08-19T01:45:19;17.30;99.90
38550;DHT22;24322;52.004;5.948;2022-08-19T01:47:46;17.40;99.90
38550;DHT22;24322;52.004;5.948;2022-08-19T01:50:12;17.40;99.90
38550;DHT22;24322;52.004;5.948;2022-08-19T01:52:40;17.40;99.90
38550;DHT22;24322;52.004;5.948;2022-08-19T01:55:09;17.50;99.90
38550;DHT22;24322;52.004;5.948;2022-08-19T01:57:37;17.60;99.90
38550;DHT22;24322;52.004;5.948;2022-08-19T02:00:09;17.60;99.90
38550;DHT22;24322;52.004;5.948;2022-08-19T02:02:35;17.70;99.90
38550;DHT22;24322;52.004;5.948;2022-08-19T02:05:01;17.70;99.90
38550;DHT22;24322;52.004;5.948;2022-08-19T02:07:26;17.80;99.90
38550;DHT22;24322;52.004;5.948;2022-08-19T02:09:53;17.80;99.90
38550;DHT22;24322;52.004;5.948;2022-08-19T02:12:20;17.80;99.90
38550;DHT22;24322;52.004;5.948;2022-08-19T02:14:46;17.80;99.90
38550;DHT22;24322;52.004;5.948;2022-08-19T02:17:12;17.90;99.90
38550;DHT22;24322;52.004;5.948;2022-08-19T02:19:38;17.90;99.90
38550;DHT22;24322;52.004;5.948;2022-08-19T02:22:03;17.90;99.90
38550;DHT22;24322;52.004;5.948;2022-08-19T02:24:29;18.00;99.90
38550;DHT22;24322;52.004;5.948;2022-08-19T02:26:55;18.00;99.90
38550;DHT22;24322;52.004;5.948;2022-08-19T02:29:20;18.00;99.90
38550;DHT22;24322;52.004;5.948;2022-08-19T02:31:46;18.00;99.90
38550;DHT22;24322;52.004;5.948;2022-08-19T02:34:12;18.00;99.90
38550;DHT22;24322;52.004;5.948;2022-08-19T02:36:38;18.00;99.90
38550;DHT22;24322;52.004;5.948;2022-08-19T02:39:03;17.90;99.90
38550;DHT22;24322;52.004;5.948;2022-08-19T02:41:31;17.90;99.90
38550;DHT22;24322;52.004;5.948;2022-08-19T02:44:00;17.90;99.90
38550;DHT22;24322;52.004;5.948;2022-08-19T02:46:28;17.90;99.90
38550;DHT22;24322;52.004;5.948;2022-08-19T02:48:57;17.80;99.90
38550;DHT22;24322;52.004;5.948;2022-08-19T02:51:30;17.80;99.90
38550;DHT22;24322;52.004;5.948;2022-08-19T02:53:56;17.70;99.90
38550;DHT22;24322;52.004;5.948;2022-08-19T02:56:22;17.70;99.90
38550;DHT22;24322;52.004;5.948;2022-08-19T02:58:49;17.60;99.90
38550;DHT22;24322;52.004;5.948;2022-08-19T03:01:24;17.50;99.90
38550;DHT22;24322;52.004;5.948;2022-08-19T03:03:52;17.50;99.90
38550;DHT22;24322;52.004;5.948;2022-08-19T03:06:18;17.50;99.90
38550;DHT22;24322;52.004;5.948;2022-08-19T03:08:46;17.40;99.90
38550;DHT22;24322;52.004;5.948;2022-08-19T03:11:20;17.40;99.90
38550;DHT22;24322;52.004;5.948;2022-08-19T03:13:46;17.30;99.90
38550;DHT22;24322;52.004;5.948;2022-08-19T03:16:14;17.30;99.90
38550;DHT22;24322;52.004;5.948;2022-08-19T03:18:40;17.20;99.90
38550;DHT22;24322;52.004;5.948;2022-08-19T03:21:06;17.20;99.90
38550;DHT22;24322;52.004;5.948;2022-08-19T03:23:32;17.20;99.90
38550;DHT22;24322;52.004;5.948;2022-08-19T03:25:58;17.10;99.90
38550;DHT22;24322;52.004;5.948;2022-08-19T03:28:24;17.10;99.90
38550;DHT22;24322;52.004;5.948;2022-08-19T03:30:58;17.10;99.90
38550;DHT22;24322;52.004;5.948;2022-08-19T03:33:26;17.10;99.90
38550;DHT22;24322;52.004;5.948;2022-08-19T03:36:13;17.00;99.90
38550;DHT22;24322;52.004;5.948;2022-08-19T03:38:45;17.00;99.90
38550;DHT22;24322;52.004;5.948;2022-08-19T03:41:14;17.00;99.90
38550;DHT22;24322;52.004;5.948;2022-08-19T03:43:41;16.90;99.90
38550;DHT22;24322;52.004;5.948;2022-08-19T03:46:10;16.90;99.90
38550;DHT22;24322;52.004;5.948;2022-08-19T03:48:37;16.90;99.90
38550;DHT22;24322;52.004;5.948;2022-08-19T03:51:04;16.80;99.90
38550;DHT22;24322;52.004;5.948;2022-08-19T03:53:31;16.80;99.90
38550;DHT22;24322;52.004;5.948;2022-08-19T03:55:57;16.80;99.90
38550;DHT22;24322;52.004;5.948;2022-08-19T03:58:26;16.70;99.90
38550;DHT22;24322;52.004;5.948;2022-08-19T04:00:54;16.70;99.90
38550;DHT22;24322;52.004;5.948;2022-08-19T04:03:20;16.60;99.90
38550;DHT22;24322;52.004;5.948;2022-08-19T04:05:46;16.60;99.90
38550;DHT22;24322;52.004;5.948;2022-08-19T04:08:12;16.60;99.90
38550;DHT22;24322;52.004;5.948;2022-08-19T04:10:38;16.50;99.90
38550;DHT22;24322;52.004;5.948;2022-08-19T04:13:04;16.50;99.90
38550;DHT22;24322;52.004;5.948;2022-08-19T04:15:31;16.40;99.90
38550;DHT22;24322;52.004;5.948;2022-08-19T04:18:04;16.40;99.90
38550;DHT22;24322;52.004;5.948;2022-08-19T04:20:31;16.40;99.90
38550;DHT22;24322;52.004;5.948;2022-08-19T04:22:57;16.40;99.90
38550;DHT22;24322;52.004;5.948;2022-08-19T04:25:22;16.30;99.90
38550;DHT22;24322;52.004;5.948;2022-08-19T04:27:48;16.30;99.90
38550;DHT22;24322;52.004;5.948;2022-08-19T04:30:14;16.30;99.90
38550;DHT22;24322;52.004;5.948;2022-08-19T04:32:41;16.30;99.90
38550;DHT22;24322;52.004;5.948;2022-08-19T04:35:08;16.20;99.90
38550;DHT22;24322;52.004;5.948;2022-08-19T04:37:34;16.20;99.90
38550;DHT22;24322;52.004;5.948;2022-08-19T04:40:00;16.20;99.90
38550;DHT22;24322;52.004;5.948;2022-08-19T04:42:44;16.10;99.90
38550;DHT22;24322;52.004;5.948;2022-08-19T04:45:14;16.10;99.90
38550;DHT22;24322;52.004;5.948;2022-08-19T04:47:41;16.10;99.90
38550;DHT22;24322;52.004;5.948;2022-08-19T04:50:08;16.10;99.90
38550;DHT22;24322;52.004;5.948;2022-08-19T04:52:38;16.10;99.90
38550;DHT22;24322;52.004;5.948;2022-08-19T04:55:09;16.10;99.90
38550;DHT22;24322;52.004;5.948;2022-08-19T04:57:35;16.00;99.90
38550;DHT22;24322;52.004;5.948;2022-08-19T05:00:04;16.00;99.90
38550;DHT22;24322;52.004;5.948;2022-08-19T05:02:29;16.00;99.90
38550;DHT22;24322;52.004;5.948;2022-08-19T05:04:58;16.10;99.90
38550;DHT22;24322;52.004;5.948;2022-08-19T05:07:26;16.00;99.90
38550;DHT22;24322;52.004;5.948;2022-08-19T05:09:52;16.00;99.90
38550;DHT22;24322;52.004;5.948;2022-08-19T05:12:18;16.00;99.90
38550;DHT22;24322;52.004;5.948;2022-08-19T05:14:45;16.00;99.90
38550;DHT22;24322;52.004;5.948;2022-08-19T05:17:12;15.90;99.90
38550;DHT22;24322;52.004;5.948;2022-08-19T05:19:38;16.00;99.90
38550;DHT22;24322;52.004;5.948;2022-08-19T05:22:23;16.00;99.90
38550;DHT22;24322;52.004;5.948;2022-08-19T05:24:58;16.00;99.90
38550;DHT22;24322;52.004;5.948;2022-08-19T05:27:24;16.00;99.90
38550;DHT22;24322;52.004;5.948;2022-08-19T05:29:50;16.00;99.90
38550;DHT22;24322;52.004;5.948;2022-08-19T05:32:15;16.10;99.90
38550;DHT22;24322;52.004;5.948;2022-08-19T05:34:41;16.10;99.90
38550;DHT22;24322;52.004;5.948;2022-08-19T05:37:08;16.10;99.90
38550;DHT22;24322;52.004;5.948;2022-08-19T05:39:35;16.20;99.90
38550;DHT22;24322;52.004;5.948;2022-08-19T05:42:04;16.20;99.90
38550;DHT22;24322;52.004;5.948;2022-08-19T05:44:33;16.30;99.90
38550;DHT22;24322;52.004;5.948;2022-08-19T05:47:00;16.40;99.90
38550;DHT22;24322;52.004;5.948;2022-08-19T05:49:27;16.40;99.90
38550;DHT22;24322;52.004;5.948;2022-08-19T05:51:54;16.50;99.90
38550;DHT22;24322;52.004;5.948;2022-08-19T05:54:21;16.50;99.90
38550;DHT22;24322;52.004;5.948;2022-08-19T05:56:49;16.60;99.90
38550;DHT22;24322;52.004;5.948;2022-08-19T05:59:16;16.70;99.90
38550;DHT22;24322;52.004;5.948;2022-08-19T06:01:43;16.80;99.90
38550;DHT22;24322;52.004;5.948;2022-08-19T06:04:10;16.90;99.90
38550;DHT22;24322;52.004;5.948;2022-08-19T06:06:36;17.00;99.90
38550;DHT22;24322;52.004;5.948;2022-08-19T06:09:04;17.10;99.90
38550;DHT22;24322;52.004;5.948;2022-08-19T06:11:34;17.20;99.90
38550;DHT22;24322;52.004;5.948;2022-08-19T06:14:04;17.30;99.90
38550;DHT22;24322;52.004;5.948;2022-08-19T06:16:30;17.40;99.90
38550;DHT22;24322;52.004;5.948;2022-08-19T06:19:02;17.50;99.90
38550;DHT22;24322;52.004;5.948;2022-08-19T06:21:29;17.70;99.90
38550;DHT22;24322;52.004;5.948;2022-08-19T06:23:56;17.80;99.90
38550;DHT22;24322;52.004;5.948;2022-08-19T06:26:22;18.00;99.90
38550;DHT22;24322;52.004;5.948;2022-08-19T06:28:48;18.20;99.90
38550;DHT22;24322;52.004;5.948;2022-08-19T06:31:19;18.30;99.90
38550;DHT22;24322;52.004;5.948;2022-08-19T06:33:47;18.50;99.90
38550;DHT22;24322;52.004;5.948;2022-08-19T06:36:24;18.60;99.90
38550;DHT22;24322;52.004;5.948;2022-08-19T06:38:57;18.80;99.90
38550;DHT22;24322;52.004;5.948;2022-08-19T06:41:24;19.00;99.90
38550;DHT22;24322;52.004;5.948;2022-08-19T06:43:50;19.10;99.90
38550;DHT22;24322;52.004;5.948;2022-08-19T06:46:17;19.30;99.90
38550;DHT22;24322;52.004;5.948;2022-08-19T06:48:44;19.40;99.90
38550;DHT22;24322;52.004;5.948;2022-08-19T06:51:09;19.50;99.90
38550;DHT22;24322;52.004;5.948;2022-08-19T06:53:35;19.60;99.90
38550;DHT22;24322;52.004;5.948;2022-08-19T06:56:01;19.70;99.90
38550;DHT22;24322;52.004;5.948;2022-08-19T06:58:31;19.80;99.90
38550;DHT22;24322;52.004;5.948;2022-08-19T07:01:01;19.80;99.90
38550;DHT22;24322;52.004;5.948;2022-08-19T07:03:31;19.90;99.90
38550;DHT22;24322;52.004;5.948;2022-08-19T07:06:03;20.10;99.90
38550;DHT22;24322;52.004;5.948;2022-08-19T07:08:29;20.20;99.90
38550;DHT22;24322;52.004;5.948;2022-08-19T07:10:54;20.30;99.90
38550;DHT22;24322;52.004;5.948;2022-08-19T07:13:20;20.30;99.90
38550;DHT22;24322;52.004;5.948;2022-08-19T07:15:48;20.40;99.90
38550;DHT22;24322;52.004;5.948;2022-08-19T07:18:17;20.50;99.90
38550;DHT22;24322;52.004;5.948;2022-08-19T07:20:43;20.50;99.90
38550;DHT22;24322;52.004;5.948;2022-08-19T07:23:09;20.50;99.90
38550;DHT22;24322;52.004;5.948;2022-08-19T07:25:36;20.60;99.90
38550;DHT22;24322;52.004;5.948;2022-08-19T07:28:03;20.70;99.90
38550;DHT22;24322;52.004;5.948;2022-08-19T07:30:29;20.80;99.90
38550;DHT22;24322;52.004;5.948;2022-08-19T07:32:54;20.90;99.90
38550;DHT22;24322;52.004;5.948;2022-08-19T07:35:22;21.10;99.90
38550;DHT22;24322;52.004;5.948;2022-08-19T07:37:49;21.10;99.90
38550;DHT22;24322;52.004;5.948;2022-08-19T07:40:15;21.10;99.90
38550;DHT22;24322;52.004;5.948;2022-08-19T07:42:41;21.20;99.90
38550;DHT22;24322;52.004;5.948;2022-08-19T07:45:08;21.20;99.90
38550;DHT22;24322;52.004;5.948;2022-08-19T07:47:34;21.30;99.90
38550;DHT22;24322;52.004;5.948;2022-08-19T07:50:00;21.40;99.90
38550;DHT22;24322;52.004;5.948;2022-08-19T07:52:26;21.50;99.90
38550;DHT22;24322;52.004;5.948;2022-08-19T07:54:51;21.60;99.90
38550;DHT22;24322;52.004;5.948;2022-08-19T07:57:17;21.70;99.90
38550;DHT22;24322;52.004;5.948;2022-08-19T07:59:44;21.90;99.90
38550;DHT22;24322;52.004;5.948;2022-08-19T08:02:09;21.90;99.90
38550;DHT22;24322;52.004;5.948;2022-08-19T08:04:35;22.00;99.90
38550;DHT22;24322;52.004;5.948;2022-08-19T08:07:20;22.00;99.90
38550;DHT22;24322;52.004;5.948;2022-08-19T08:10:05;21.90;99.90
38550;DHT22;24322;52.004;5.948;2022-08-19T08:12:36;21.90;99.90
38550;DHT22;24322;52.004;5.948;2022-08-19T08:15:09;21.90;99.90
38550;DHT22;24322;52.004;5.948;2022-08-19T08:17:35;22.00;99.90
38550;DHT22;24322;52.004;5.948;2022-08-19T08:20:04;22.20;99.90
38550;DHT22;24322;52.004;5.948;2022-08-19T08:22:32;22.40;99.90
38550;DHT22;24322;52.004;5.948;2022-08-19T08:25:20;22.40;99.90
38550;DHT22;24322;52.004;5.948;2022-08-19T08:27:46;22.70;99.90
38550;DHT22;24322;52.004;5.948;2022-08-19T08:30:20;23.00;99.90
38550;DHT22;24322;52.004;5.948;2022-08-19T08:32:47;23.30;99.90
38550;DHT22;24322;52.004;5.948;2022-08-19T08:35:15;23.40;99.90
38550;DHT22;24322;52.004;5.948;2022-08-19T08:37:42;23.50;99.90
38550;DHT22;24322;52.004;5.948;2022-08-19T08:40:38;23.40;99.90
38550;DHT22;24322;52.004;5.948;2022-08-19T08:46:18;23.90;99.90
38550;DHT22;24322;52.004;5.948;2022-08-19T08:51:50;25.00;97.90
38550;DHT22;24322;52.004;5.948;2022-08-19T08:54:16;25.40;96.70
38550;DHT22;24322;52.004;5.948;2022-08-19T08:56:44;26.00;95.60
38550;DHT22;24322;52.004;5.948;2022-08-19T08:59:31;26.50;95.20
38550;DHT22;24322;52.004;5.948;2022-08-19T09:01:59;27.30;91.80
38550;DHT22;24322;52.004;5.948;2022-08-19T09:04:25;27.80;91.10
38550;DHT22;24322;52.004;5.948;2022-08-19T09:07:02;28.60;88.40
38550;DHT22;24322;52.004;5.948;2022-08-19T09:09:48;28.90;83.90
38550;DHT22;24322;52.004;5.948;2022-08-19T09:12:43;29.00;81.10
38550;DHT22;24322;52.004;5.948;2022-08-19T09:15:13;29.20;79.70
38550;DHT22;24322;52.004;5.948;2022-08-19T09:17:39;29.30;77.20
38550;DHT22;24322;52.004;5.948;2022-08-19T09:22:38;30.00;74.20
38550;DHT22;24322;52.004;5.948;2022-08-19T09:25:07;30.20;74.60
38550;DHT22;24322;52.004;5.948;2022-08-19T09:27:33;30.20;72.70
38550;DHT22;24322;52.004;5.948;2022-08-19T09:29:59;30.30;71.80
38550;DHT22;24322;52.004;5.948;2022-08-19T09:32:24;30.30;71.30
38550;DHT22;24322;52.004;5.948;2022-08-19T09:34:51;30.40;71.70
38550;DHT22;24322;52.004;5.948;2022-08-19T09:37:20;30.40;69.70
38550;DHT22;24322;52.004;5.948;2022-08-19T09:39:47;30.30;70.60
38550;DHT22;24322;52.004;5.948;2022-08-19T09:42:12;30.50;70.40
38550;DHT22;24322;52.004;5.948;2022-08-19T09:44:40;30.80;70.20
38550;DHT22;24322;52.004;5.948;2022-08-19T09:47:07;30.80;69.70
38550;DHT22;24322;52.004;5.948;2022-08-19T09:49:33;30.70;70.00
38550;DHT22;24322;52.004;5.948;2022-08-19T09:51:59;30.70;69.50
38550;DHT22;24322;52.004;5.948;2022-08-19T09:54:25;30.20;70.10
38550;DHT22;24322;52.004;5.948;2022-08-19T09:56:54;29.70;71.80
38550;DHT22;24322;52.004;5.948;2022-08-19T09:59:20;29.60;72.30
38550;DHT22;24322;52.004;5.948;2022-08-19T10:01:46;29.10;72.20
38550;DHT22;24322;52.004;5.948;2022-08-19T10:04:11;29.00;72.90
38550;DHT22;24322;52.004;5.948;2022-08-19T10:06:39;28.90;72.80
38550;DHT22;24322;52.004;5.948;2022-08-19T10:09:06;28.70;72.50
38550;DHT22;24322;52.004;5.948;2022-08-19T10:11:34;28.30;74.50
38550;DHT22;24322;52.004;5.948;2022-08-19T10:14:01;28.20;74.70
38550;DHT22;24322;52.004;5.948;2022-08-19T10:16:27;28.50;74.20
38550;DHT22;24322;52.004;5.948;2022-08-19T10:18:53;28.60;73.20
38550;DHT22;24322;52.004;5.948;2022-08-19T10:21:24;28.80;72.50
38550;DHT22;24322;52.004;5.948;2022-08-19T10:23:53;28.70;72.80
38550;DHT22;24322;52.004;5.948;2022-08-19T10:26:24;28.50;72.10
38550;DHT22;24322;52.004;5.948;2022-08-19T10:28:50;28.70;72.30
38550;DHT22;24322;52.004;5.948;2022-08-19T10:31:19;29.00;72.10
38550;DHT22;24322;52.004;5.948;2022-08-19T10:33:47;29.40;71.40
38550;DHT22;24322;52.004;5.948;2022-08-19T10:36:17;29.70;69.00
38550;DHT22;24322;52.004;5.948;2022-08-19T10:38:45;30.00;68.90
38550;DHT22;24322;52.004;5.948;2022-08-19T10:41:20;30.40;66.70
38550;DHT22;24322;52.004;5.948;2022-08-19T10:43:51;30.70;66.10
38550;DHT22;24322;52.004;5.948;2022-08-19T10:46:18;31.20;64.80
38550;DHT22;24322;52.004;5.948;2022-08-19T10:48:44;31.20;63.00
38550;DHT22;24322;52.004;5.948;2022-08-19T10:51:11;31.30;62.80
38550;DHT22;24322;52.004;5.948;2022-08-19T10:53:55;31.20;63.10
38550;DHT22;24322;52.004;5.948;2022-08-19T10:56:21;30.70;64.50
38550;DHT22;24322;52.004;5.948;2022-08-19T10:59:06;30.20;66.40
38550;DHT22;24322;52.004;5.948;2022-08-19T11:01:33;29.80;66.90
38550;DHT22;24322;52.004;5.948;2022-08-19T11:04:03;29.50;68.00
38550;DHT22;24322;52.004;5.948;2022-08-19T11:06:31;29.30;67.70
38550;DHT22;24322;52.004;5.948;2022-08-19T11:08:58;29.10;68.30
38550;DHT22;24322;52.004;5.948;2022-08-19T11:11:26;29.20;69.00
38550;DHT22;24322;52.004;5.948;2022-08-19T11:13:52;29.00;69.10
38550;DHT22;24322;52.004;5.948;2022-08-19T11:16:21;28.90;70.20
38550;DHT22;24322;52.004;5.948;2022-08-19T11:18:53;28.90;69.20
38550;DHT22;24322;52.004;5.948;2022-08-19T11:21:25;28.60;69.60
38550;DHT22;24322;52.004;5.948;2022-08-19T11:23:54;28.60;71.40
38550;DHT22;24322;52.004;5.948;2022-08-19T11:26:21;28.40;71.60
38550;DHT22;24322;52.004;5.948;2022-08-19T11:28:47;28.20;71.10
38550;DHT22;24322;52.004;5.948;2022-08-19T11:31:20;28.10;71.00
38550;DHT22;24322;52.004;5.948;2022-08-19T11:33:46;28.00;71.30
38550;DHT22;24322;52.004;5.948;2022-08-19T11:36:12;27.90;71.90
38550;DHT22;24322;52.004;5.948;2022-08-19T11:38:38;27.70;72.40
38550;DHT22;24322;52.004;5.948;2022-08-19T11:41:06;27.70;72.30
38550;DHT22;24322;52.004;5.948;2022-08-19T11:43:35;27.60;72.40
38550;DHT22;24322;52.004;5.948;2022-08-19T11:46:06;27.70;73.00
38550;DHT22;24322;52.004;5.948;2022-08-19T11:48:32;27.70;72.50
38550;DHT22;24322;52.004;5.948;2022-08-19T11:50:58;27.80;73.20
38550;DHT22;24322;52.004;5.948;2022-08-19T11:53:24;27.80;72.80
38550;DHT22;24322;52.004;5.948;2022-08-19T11:55:53;27.80;73.20
38550;DHT22;24322;52.004;5.948;2022-08-19T11:58:21;27.90;73.00
38550;DHT22;24322;52.004;5.948;2022-08-19T12:00:47;27.90;72.70
38550;DHT22;24322;52.004;5.948;2022-08-19T12:03:13;28.10;73.40
38550;DHT22;24322;52.004;5.948;2022-08-19T12:05:40;28.20;72.50
38550;DHT22;24322;52.004;5.948;2022-08-19T12:08:06;28.20;71.70
38550;DHT22;24322;52.004;5.948;2022-08-19T12:10:33;28.20;71.50
38550;DHT22;24322;52.004;5.948;2022-08-19T12:12:59;28.20;71.80
38550;DHT22;24322;52.004;5.948;2022-08-19T12:15:26;28.20;71.60
38550;DHT22;24322;52.004;5.948;2022-08-19T12:17:53;28.20;71.40
38550;DHT22;24322;52.004;5.948;2022-08-19T12:20:22;28.20;70.70
38550;DHT22;24322;52.004;5.948;2022-08-19T12:22:47;28.10;71.50
38550;DHT22;24322;52.004;5.948;2022-08-19T12:25:14;28.40;71.00
38550;DHT22;24322;52.004;5.948;2022-08-19T12:27:40;28.50;71.00
38550;DHT22;24322;52.004;5.948;2022-08-19T12:30:08;28.70;70.80
38550;DHT22;24322;52.004;5.948;2022-08-19T12:32:34;29.00;70.10
38550;DHT22;24322;52.004;5.948;2022-08-19T12:35:00;29.10;70.40
38550;DHT22;24322;52.004;5.948;2022-08-19T12:37:26;29.40;69.80
38550;DHT22;24322;52.004;5.948;2022-08-19T12:39:52;29.70;69.40
38550;DHT22;24322;52.004;5.948;2022-08-19T12:42:17;29.70;69.00
38550;DHT22;24322;52.004;5.948;2022-08-19T12:44:44;29.70;67.70
38550;DHT22;24322;52.004;5.948;2022-08-19T12:47:11;29.50;68.40
38550;DHT22;24322;52.004;5.948;2022-08-19T12:49:37;29.50;68.80
38550;DHT22;24322;52.004;5.948;2022-08-19T12:52:05;29.80;69.40
38550;DHT22;24322;52.004;5.948;2022-08-19T12:54:33;29.70;68.10
38550;DHT22;24322;52.004;5.948;2022-08-19T12:56:59;29.70;69.00
38550;DHT22;24322;52.004;5.948;2022-08-19T12:59:25;29.70;68.10
38550;DHT22;24322;52.004;5.948;2022-08-19T13:01:51;29.70;68.50
38550;DHT22;24322;52.004;5.948;2022-08-19T13:04:17;29.70;69.00
38550;DHT22;24322;52.004;5.948;2022-08-19T13:06:43;29.80;69.20
38550;DHT22;24322;52.004;5.948;2022-08-19T13:09:09;29.80;69.20
38550;DHT22;24322;52.004;5.948;2022-08-19T13:11:36;29.80;68.70
38550;DHT22;24322;52.004;5.948;2022-08-19T13:14:02;29.70;68.70
38550;DHT22;24322;52.004;5.948;2022-08-19T13:16:29;30.00;68.60
38550;DHT22;24322;52.004;5.948;2022-08-19T13:18:56;30.00;67.00
38550;DHT22;24322;52.004;5.948;2022-08-19T13:21:25;29.90;67.40
38550;DHT22;24322;52.004;5.948;2022-08-19T13:23:53;29.90;68.00
38550;DHT22;24322;52.004;5.948;2022-08-19T13:26:20;30.00;67.80
38550;DHT22;24322;52.004;5.948;2022-08-19T13:28:46;30.20;67.10
38550;DHT22;24322;52.004;5.948;2022-08-19T13:31:33;30.30;66.40
38550;DHT22;24322;52.004;5.948;2022-08-19T13:34:19;30.40;66.50
38550;DHT22;24322;52.004;5.948;2022-08-19T13:36:46;30.30;66.90
38550;DHT22;24322;52.004;5.948;2022-08-19T13:39:12;30.20;66.60
38550;DHT22;24322;52.004;5.948;2022-08-19T13:41:43;29.90;66.80
38550;DHT22;24322;52.004;5.948;2022-08-19T13:44:13;29.70;67.40
38550;DHT22;24322;52.004;5.948;2022-08-19T13:46:39;29.80;68.50
38550;DHT22;24322;52.004;5.948;2022-08-19T13:49:05;30.00;67.40
38550;DHT22;24322;52.004;5.948;2022-08-19T13:51:30;30.10;67.10
38550;DHT22;24322;52.004;5.948;2022-08-19T13:53:56;29.90;66.10
38550;DHT22;24322;52.004;5.948;2022-08-19T13:56:21;29.70;66.40
38550;DHT22;24322;52.004;5.948;2022-08-19T13:58:47;29.50;67.30
38550;DHT22;24322;52.004;5.948;2022-08-19T14:01:19;29.50;68.70
38550;DHT22;24322;52.004;5.948;2022-08-19T14:03:45;29.40;68.30
38550;DHT22;24322;52.004;5.948;2022-08-19T14:06:10;29.30;68.40
38550;DHT22;24322;52.004;5.948;2022-08-19T14:08:36;29.00;69.20
38550;DHT22;24322;52.004;5.948;2022-08-19T14:11:04;29.00;70.40
38550;DHT22;24322;52.004;5.948;2022-08-19T14:13:30;28.80;70.20
38550;DHT22;24322;52.004;5.948;2022-08-19T14:15:58;28.70;71.30
38550;DHT22;24322;52.004;5.948;2022-08-19T14:18:23;28.70;71.80
38550;DHT22;24322;52.004;5.948;2022-08-19T14:20:50;28.70;71.60
38550;DHT22;24322;52.004;5.948;2022-08-19T14:23:16;28.50;71.90
38550;DHT22;24322;52.004;5.948;2022-08-19T14:25:42;28.20;72.80
38550;DHT22;24322;52.004;5.948;2022-08-19T14:28:08;27.90;73.90
38550;DHT22;24322;52.004;5.948;2022-08-19T14:30:35;27.70;75.60
38550;DHT22;24322;52.004;5.948;2022-08-19T14:33:03;27.60;75.60
38550;DHT22;24322;52.004;5.948;2022-08-19T14:35:31;27.60;76.50
38550;DHT22;24322;52.004;5.948;2022-08-19T14:38:01;27.70;76.60
38550;DHT22;24322;52.004;5.948;2022-08-19T14:40:29;27.60;76.40
38550;DHT22;24322;52.004;5.948;2022-08-19T14:43:03;27.40;76.80
38550;DHT22;24322;52.004;5.948;2022-08-19T14:45:36;27.30;77.30
38550;DHT22;24322;52.004;5.948;2022-08-19T14:48:02;27.20;78.20
38550;DHT22;24322;52.004;5.948;2022-08-19T14:50:28;27.20;78.50
38550;DHT22;24322;52.004;5.948;2022-08-19T14:53:01;26.90;79.00
38550;DHT22;24322;52.004;5.948;2022-08-19T14:55:27;26.80;80.10
38550;DHT22;24322;52.004;5.948;2022-08-19T14:57:53;26.70;80.40
38550;DHT22;24322;52.004;5.948;2022-08-19T15:00:19;26.60;80.90
38550;DHT22;24322;52.004;5.948;2022-08-19T15:02:44;26.50;81.20
38550;DHT22;24322;52.004;5.948;2022-08-19T15:05:10;26.40;82.00
38550;DHT22;24322;52.004;5.948;2022-08-19T15:07:37;26.30;83.10
38550;DHT22;24322;52.004;5.948;2022-08-19T15:10:04;26.30;83.20
38550;DHT22;24322;52.004;5.948;2022-08-19T15:12:32;26.30;83.60
38550;DHT22;24322;52.004;5.948;2022-08-19T15:14:59;26.20;83.50
38550;DHT22;24322;52.004;5.948;2022-08-19T15:17:25;26.20;83.90
38550;DHT22;24322;52.004;5.948;2022-08-19T15:19:51;26.10;84.00
38550;DHT22;24322;52.004;5.948;2022-08-19T15:22:17;26.10;84.40
38550;DHT22;24322;52.004;5.948;2022-08-19T15:24:43;25.90;84.90
38550;DHT22;24322;52.004;5.948;2022-08-19T15:27:12;25.60;86.30
38550;DHT22;24322;52.004;5.948;2022-08-19T15:29:38;25.50;87.90
38550;DHT22;24322;52.004;5.948;2022-08-19T15:32:05;25.50;89.50
38550;DHT22;24322;52.004;5.948;2022-08-19T15:34:32;25.30;90.20
38550;DHT22;24322;52.004;5.948;2022-08-19T15:36:57;25.30;90.40
38550;DHT22;24322;52.004;5.948;2022-08-19T15:39:25;25.30;90.90
38550;DHT22;24322;52.004;5.948;2022-08-19T15:41:51;25.10;91.40
38550;DHT22;24322;52.004;5.948;2022-08-19T15:44:19;25.10;91.70